sensor_id;sensor_type;location;lat;lon;timestamp;pressure;altitude;pressure_sealevel;temperature;humidity
27729;BME280;15126;42.186;24.340;2022-07-29T00:00:08;99349.50;;;25.48;57.41
27729;BME280;15126;42.186;24.340;2022-07-29T00:02:36;99354.00;;;25.38;57.78
27729;BME280;15126;42.186;24.340;2022-07-29T00:05:03;99349.91;;;25.28;57.96
27729;BME280;15126;42.186;24.340;2022-07-29T00:07:30;99370.38;;;25.32;57.42
27729;BME280;15126;42.186;24.340;2022-07-29T00:09:57;99361.91;;;25.21;57.61
27729;BME280;15126;42.186;24.340;2022-07-29T00:12:25;99363.19;;;25.20;59.48
27729;BME280;15126;42.186;24.340;2022-07-29T00:14:53;99362.50;;;25.14;59.60
27729;BME280;15126;42.186;24.340;2022-07-29T00:17:21;99366.09;;;25.14;59.29
27729;BME280;15126;42.186;24.340;2022-07-29T00:19:47;99363.81;;;25.07;58.96
27729;BME280;15126;42.186;24.340;2022-07-29T00:22:14;99363.28;;;25.09;59.44
27729;BME280;15126;42.186;24.340;2022-07-29T00:24:41;99370.78;;;25.12;59.93
27729;BME280;15126;42.186;24.340;2022-07-29T00:27:08;99362.53;;;25.08;59.46
27729;BME280;15126;42.186;24.340;2022-07-29T00:29:36;99356.81;;;25.08;59.09
27729;BME280;15126;42.186;24.340;2022-07-29T00:32:03;99351.63;;;25.07;58.54
27729;BME280;15126;42.186;24.340;2022-07-29T00:34:30;99354.72;;;25.09;58.85
27729;BME280;15126;42.186;24.340;2022-07-29T00:37:15;99347.50;;;25.02;57.44
27729;BME280;15126;42.186;24.340;2022-07-29T00:39:42;99356.59;;;25.01;57.46
27729;BME280;15126;42.186;24.340;2022-07-29T00:42:09;99357.13;;;24.99;59.23
27729;BME280;15126;42.186;24.340;2022-07-29T00:44:38;99360.50;;;24.98;59.87
27729;BME280;15126;42.186;24.340;2022-07-29T00:47:05;99351.47;;;24.94;58.80
27729;BME280;15126;42.186;24.340;2022-07-29T00:49:32;99354.53;;;24.96;59.33
27729;BME280;15126;42.186;24.340;2022-07-29T00:52:00;99360.06;;;24.88;56.98
27729;BME280;15126;42.186;24.340;2022-07-29T00:54:27;99358.50;;;24.87;58.20
27729;BME280;15126;42.186;24.340;2022-07-29T00:56:55;99361.13;;;24.79;58.83
27729;BME280;15126;42.186;24.340;2022-07-29T00:59:22;99368.91;;;24.79;58.80
27729;BME280;15126;42.186;24.340;2022-07-29T01:01:51;99360.63;;;24.75;58.27
27729;BME280;15126;42.186;24.340;2022-07-29T01:04:18;99358.59;;;24.70;58.97
27729;BME280;15126;42.186;24.340;2022-07-29T01:06:45;99351.56;;;24.71;58.22
27729;BME280;15126;42.186;24.340;2022-07-29T01:09:12;99343.56;;;24.64;58.41
27729;BME280;15126;42.186;24.340;2022-07-29T01:11:40;99345.09;;;24.65;58.38
27729;BME280;15126;42.186;24.340;2022-07-29T01:14:08;99351.78;;;24.73;58.77
27729;BME280;15126;42.186;24.340;2022-07-29T01:16:42;99350.03;;;24.70;57.29
27729;BME280;15126;42.186;24.340;2022-07-29T01:19:26;99353.16;;;24.67;57.12
27729;BME280;15126;42.186;24.340;2022-07-29T01:22:02;99342.50;;;24.67;57.28
27729;BME280;15126;42.186;24.340;2022-07-29T01:24:55;99345.88;;;24.66;57.59
27729;BME280;15126;42.186;24.340;2022-07-29T01:27:41;99331.66;;;24.60;58.08
27729;BME280;15126;42.186;24.340;2022-07-29T01:30:12;99342.25;;;24.65;57.98
27729;BME280;15126;42.186;24.340;2022-07-29T01:32:39;99340.72;;;24.64;58.44
27729;BME280;15126;42.186;24.340;2022-07-29T01:35:12;99344.84;;;24.63;58.09
27729;BME280;15126;42.186;24.340;2022-07-29T01:37:45;99340.19;;;24.60;57.79
27729;BME280;15126;42.186;24.340;2022-07-29T01:40:19;99338.41;;;24.57;58.28
27729;BME280;15126;42.186;24.340;2022-07-29T01:42:51;99327.81;;;24.47;57.91
27729;BME280;15126;42.186;24.340;2022-07-29T01:45:24;99334.81;;;24.51;59.31
27729;BME280;15126;42.186;24.340;2022-07-29T01:47:58;99339.44;;;24.54;58.15
27729;BME280;15126;42.186;24.340;2022-07-29T01:50:31;99346.72;;;24.55;58.48
27729;BME280;15126;42.186;24.340;2022-07-29T01:53:02;99343.38;;;24.51;58.88
27729;BME280;15126;42.186;24.340;2022-07-29T01:55:34;99336.91;;;24.51;60.07
27729;BME280;15126;42.186;24.340;2022-07-29T01:58:03;99343.09;;;24.49;59.81
27729;BME280;15126;42.186;24.340;2022-07-29T02:00:33;99341.06;;;24.44;60.16
27729;BME280;15126;42.186;24.340;2022-07-29T02:03:03;99349.63;;;24.44;60.21
27729;BME280;15126;42.186;24.340;2022-07-29T02:05:32;99349.63;;;24.39;59.68
27729;BME280;15126;42.186;24.340;2022-07-29T02:08:02;99347.31;;;24.37;59.74
27729;BME280;15126;42.186;24.340;2022-07-29T02:10:31;99342.44;;;24.32;60.46
27729;BME280;15126;42.186;24.340;2022-07-29T02:12:59;99342.78;;;23.79;62.41
27729;BME280;15126;42.186;24.340;2022-07-29T02:15:31;99338.66;;;23.80;62.48
27729;BME280;15126;42.186;24.340;2022-07-29T02:18:02;99333.50;;;23.73;62.90
27729;BME280;15126;42.186;24.340;2022-07-29T02:20:31;99329.34;;;23.74;64.01
27729;BME280;15126;42.186;24.340;2022-07-29T02:22:59;99333.50;;;23.73;64.70
27729;BME280;15126;42.186;24.340;2022-07-29T02:25:27;99332.72;;;23.72;64.14
27729;BME280;15126;42.186;24.340;2022-07-29T02:27:55;99328.84;;;23.69;64.38
27729;BME280;15126;42.186;24.340;2022-07-29T02:30:23;99327.53;;;23.65;64.66
27729;BME280;15126;42.186;24.340;2022-07-29T02:32:53;99319.00;;;23.59;65.41
27729;BME280;15126;42.186;24.340;2022-07-29T02:35:21;99305.81;;;23.51;66.16
27729;BME280;15126;42.186;24.340;2022-07-29T02:37:49;99317.72;;;23.60;67.05
27729;BME280;15126;42.186;24.340;2022-07-29T02:40:31;99317.97;;;23.57;65.67
27729;BME280;15126;42.186;24.340;2022-07-29T02:42:59;99317.19;;;23.51;66.68
27729;BME280;15126;42.186;24.340;2022-07-29T02:45:27;99324.47;;;23.41;67.33
27729;BME280;15126;42.186;24.340;2022-07-29T02:47:58;99324.44;;;23.35;65.94
27729;BME280;15126;42.186;24.340;2022-07-29T02:50:30;99333.50;;;23.28;66.32
27729;BME280;15126;42.186;24.340;2022-07-29T02:53:02;99318.50;;;23.11;67.18
27729;BME280;15126;42.186;24.340;2022-07-29T02:55:34;99324.19;;;23.22;66.41
27729;BME280;15126;42.186;24.340;2022-07-29T02:58:05;99326.25;;;23.27;66.86
27729;BME280;15126;42.186;24.340;2022-07-29T03:00:37;99336.34;;;23.17;67.66
27729;BME280;15126;42.186;24.340;2022-07-29T03:03:09;99337.38;;;23.14;68.45
27729;BME280;15126;42.186;24.340;2022-07-29T03:05:37;99336.09;;;23.15;68.58
27729;BME280;15126;42.186;24.340;2022-07-29T03:08:06;99339.94;;;22.95;70.29
27729;BME280;15126;42.186;24.340;2022-07-29T03:10:36;99336.84;;;22.88;71.43
27729;BME280;15126;42.186;24.340;2022-07-29T03:13:04;99335.25;;;22.76;71.61
27729;BME280;15126;42.186;24.340;2022-07-29T03:15:32;99338.88;;;22.82;72.09
27729;BME280;15126;42.186;24.340;2022-07-29T03:17:59;99340.66;;;22.68;72.37
27729;BME280;15126;42.186;24.340;2022-07-29T03:20:28;99342.47;;;22.66;72.57
27729;BME280;15126;42.186;24.340;2022-07-29T03:22:55;99348.13;;;22.60;73.34
27729;BME280;15126;42.186;24.340;2022-07-29T03:25:21;99343.50;;;22.68;72.60
27729;BME280;15126;42.186;24.340;2022-07-29T03:27:49;99350.19;;;22.60;73.61
27729;BME280;15126;42.186;24.340;2022-07-29T03:30:16;99337.53;;;22.61;74.04
27729;BME280;15126;42.186;24.340;2022-07-29T03:32:43;99347.06;;;22.58;74.46
27729;BME280;15126;42.186;24.340;2022-07-29T03:35:10;99336.69;;;22.49;74.19
27729;BME280;15126;42.186;24.340;2022-07-29T03:37:38;99352.00;;;22.63;73.82
27729;BME280;15126;42.186;24.340;2022-07-29T03:40:07;99343.75;;;22.65;73.63
27729;BME280;15126;42.186;24.340;2022-07-29T03:42:37;99360.03;;;22.70;73.51
27729;BME280;15126;42.186;24.340;2022-07-29T03:45:07;99358.50;;;22.69;73.91
27729;BME280;15126;42.186;24.340;2022-07-29T03:47:38;99342.97;;;22.64;74.27
27729;BME280;15126;42.186;24.340;2022-07-29T03:50:06;99355.69;;;22.74;73.54
27729;BME280;15126;42.186;24.340;2022-07-29T03:52:35;99349.22;;;22.74;74.49
27729;BME280;15126;42.186;24.340;2022-07-29T03:55:04;99352.06;;;22.74;73.93
27729;BME280;15126;42.186;24.340;2022-07-29T03:57:31;99354.66;;;22.72;74.08
27729;BME280;15126;42.186;24.340;2022-07-29T04:00:00;99353.91;;;22.82;73.09
27729;BME280;15126;42.186;24.340;2022-07-29T04:02:28;99353.63;;;22.86;73.99
27729;BME280;15126;42.186;24.340;2022-07-29T04:04:54;99355.44;;;22.89;73.76
27729;BME280;15126;42.186;24.340;2022-07-29T04:07:21;99365.56;;;23.01;73.48
27729;BME280;15126;42.186;24.340;2022-07-29T04:09:48;99361.97;;;23.17;72.68
27729;BME280;15126;42.186;24.340;2022-07-29T04:12:16;99366.34;;;23.29;71.97
27729;BME280;15126;42.186;24.340;2022-07-29T04:14:43;99363.78;;;23.64;71.13
27729;BME280;15126;42.186;24.340;2022-07-29T04:17:10;99365.56;;;23.90;69.98
27729;BME280;15126;42.186;24.340;2022-07-29T04:19:37;99368.38;;;24.17;69.03
27729;BME280;15126;42.186;24.340;2022-07-29T04:22:03;99378.88;;;24.56;67.87
27729;BME280;15126;42.186;24.340;2022-07-29T04:24:30;99381.78;;;24.97;65.62
27729;BME280;15126;42.186;24.340;2022-07-29T04:26:57;99371.69;;;25.31;64.28
27729;BME280;15126;42.186;24.340;2022-07-29T04:29:25;99370.44;;;25.62;62.76
27729;BME280;15126;42.186;24.340;2022-07-29T04:31:52;99372.78;;;25.87;61.45
27729;BME280;15126;42.186;24.340;2022-07-29T04:34:19;99367.81;;;26.18;61.38
27729;BME280;15126;42.186;24.340;2022-07-29T04:36:46;99368.03;;;26.44;59.66
27729;BME280;15126;42.186;24.340;2022-07-29T04:39:13;99359.25;;;26.60;59.08
27729;BME280;15126;42.186;24.340;2022-07-29T04:41:40;99373.19;;;26.88;59.07
27729;BME280;15126;42.186;24.340;2022-07-29T04:44:06;99369.47;;;26.93;58.05
27729;BME280;15126;42.186;24.340;2022-07-29T04:46:35;99366.44;;;27.04;57.58
27729;BME280;15126;42.186;24.340;2022-07-29T04:49:02;99373.72;;;27.05;57.37
27729;BME280;15126;42.186;24.340;2022-07-29T04:51:29;99376.72;;;27.13;59.03
27729;BME280;15126;42.186;24.340;2022-07-29T04:53:56;99365.69;;;27.04;58.13
27729;BME280;15126;42.186;24.340;2022-07-29T04:56:23;99375.03;;;27.04;58.08
27729;BME280;15126;42.186;24.340;2022-07-29T04:58:50;99379.00;;;27.01;57.93
27729;BME280;15126;42.186;24.340;2022-07-29T05:01:16;99381.38;;;26.97;58.37
27729;BME280;15126;42.186;24.340;2022-07-29T05:03:45;99379.66;;;26.70;57.89
27729;BME280;15126;42.186;24.340;2022-07-29T05:06:12;99382.75;;;26.72;58.26
27729;BME280;15126;42.186;24.340;2022-07-29T05:08:39;99376.44;;;26.79;59.66
27729;BME280;15126;42.186;24.340;2022-07-29T05:11:05;99382.44;;;26.57;58.12
27729;BME280;15126;42.186;24.340;2022-07-29T05:13:32;99377.94;;;26.61;58.78
27729;BME280;15126;42.186;24.340;2022-07-29T05:15:59;99375.22;;;26.50;58.53
27729;BME280;15126;42.186;24.340;2022-07-29T05:18:26;99372.94;;;26.25;58.90
27729;BME280;15126;42.186;24.340;2022-07-29T05:20:55;99377.91;;;26.43;59.36
27729;BME280;15126;42.186;24.340;2022-07-29T05:23:22;99381.03;;;26.63;57.31
27729;BME280;15126;42.186;24.340;2022-07-29T05:25:48;99376.25;;;26.72;56.29
27729;BME280;15126;42.186;24.340;2022-07-29T05:28:15;99385.25;;;26.81;57.37
27729;BME280;15126;42.186;24.340;2022-07-29T05:30:42;99379.31;;;26.98;55.22
27729;BME280;15126;42.186;24.340;2022-07-29T05:33:10;99381.94;;;27.14;55.78
27729;BME280;15126;42.186;24.340;2022-07-29T05:35:37;99378.56;;;27.29;56.01
27729;BME280;15126;42.186;24.340;2022-07-29T05:38:05;99381.81;;;27.39;55.50
27729;BME280;15126;42.186;24.340;2022-07-29T05:40:32;99387.81;;;27.54;56.14
27729;BME280;15126;42.186;24.340;2022-07-29T05:42:59;99382.91;;;27.67;55.50
27729;BME280;15126;42.186;24.340;2022-07-29T05:45:26;99386.69;;;27.75;55.00
27729;BME280;15126;42.186;24.340;2022-07-29T05:47:53;99394.09;;;27.84;54.54
27729;BME280;15126;42.186;24.340;2022-07-29T05:50:19;99398.50;;;27.85;55.02
27729;BME280;15126;42.186;24.340;2022-07-29T05:52:46;99403.09;;;28.07;53.05
27729;BME280;15126;42.186;24.340;2022-07-29T05:55:15;99398.06;;;27.94;56.33
27729;BME280;15126;42.186;24.340;2022-07-29T05:57:41;99384.72;;;27.97;53.44
27729;BME280;15126;42.186;24.340;2022-07-29T06:00:11;99400.03;;;28.31;54.07
27729;BME280;15126;42.186;24.340;2022-07-29T06:02:38;99401.78;;;28.47;53.34
27729;BME280;15126;42.186;24.340;2022-07-29T06:05:05;99401.47;;;28.64;54.91
27729;BME280;15126;42.186;24.340;2022-07-29T06:07:32;99402.56;;;28.74;52.25
27729;BME280;15126;42.186;24.340;2022-07-29T06:09:59;99396.78;;;28.87;53.06
27729;BME280;15126;42.186;24.340;2022-07-29T06:12:27;99398.44;;;28.96;52.05
27729;BME280;15126;42.186;24.340;2022-07-29T06:14:54;99395.22;;;28.99;49.56
27729;BME280;15126;42.186;24.340;2022-07-29T06:17:22;99394.75;;;29.08;50.51
27729;BME280;15126;42.186;24.340;2022-07-29T06:19:48;99395.75;;;29.11;50.77
27729;BME280;15126;42.186;24.340;2022-07-29T06:22:15;99395.19;;;29.12;50.10
27729;BME280;15126;42.186;24.340;2022-07-29T06:24:42;99407.22;;;29.24;50.28
27729;BME280;15126;42.186;24.340;2022-07-29T06:27:09;99388.75;;;29.19;49.39
27729;BME280;15126;42.186;24.340;2022-07-29T06:29:38;99403.66;;;29.51;52.05
27729;BME280;15126;42.186;24.340;2022-07-29T06:32:05;99406.13;;;29.68;50.39
27729;BME280;15126;42.186;24.340;2022-07-29T06:34:34;99417.81;;;29.83;52.88
27729;BME280;15126;42.186;24.340;2022-07-29T06:37:05;99412.47;;;29.87;50.36
27729;BME280;15126;42.186;24.340;2022-07-29T06:39:33;99413.03;;;30.06;49.87
27729;BME280;15126;42.186;24.340;2022-07-29T06:42:00;99402.00;;;30.18;44.89
27729;BME280;15126;42.186;24.340;2022-07-29T06:44:27;99407.25;;;30.27;49.73
27729;BME280;15126;42.186;24.340;2022-07-29T06:46:56;99404.75;;;30.31;49.39
27729;BME280;15126;42.186;24.340;2022-07-29T06:49:23;99402.53;;;30.37;48.39
27729;BME280;15126;42.186;24.340;2022-07-29T06:51:51;99401.63;;;30.50;47.43
27729;BME280;15126;42.186;24.340;2022-07-29T06:54:18;99403.44;;;30.60;47.31
27729;BME280;15126;42.186;24.340;2022-07-29T06:56:45;99397.66;;;30.60;48.47
27729;BME280;15126;42.186;24.340;2022-07-29T06:59:12;99400.06;;;30.77;48.34
27729;BME280;15126;42.186;24.340;2022-07-29T07:01:41;99395.25;;;30.72;47.61
27729;BME280;15126;42.186;24.340;2022-07-29T07:04:10;99394.78;;;30.60;46.93
27729;BME280;15126;42.186;24.340;2022-07-29T07:06:37;99397.34;;;30.72;47.58
27729;BME280;15126;42.186;24.340;2022-07-29T07:09:04;99392.38;;;30.80;47.90
27729;BME280;15126;42.186;24.340;2022-07-29T07:11:31;99385.13;;;30.86;51.59
27729;BME280;15126;42.186;24.340;2022-07-29T07:13:58;99371.84;;;30.83;47.00
27729;BME280;15126;42.186;24.340;2022-07-29T07:16:25;99380.41;;;31.04;48.31
27729;BME280;15126;42.186;24.340;2022-07-29T07:18:52;99378.47;;;30.99;45.00
27729;BME280;15126;42.186;24.340;2022-07-29T07:21:20;99380.38;;;30.96;49.51
27729;BME280;15126;42.186;24.340;2022-07-29T07:23:47;99380.66;;;31.13;46.04
27729;BME280;15126;42.186;24.340;2022-07-29T07:26:13;99384.91;;;31.20;46.93
27729;BME280;15126;42.186;24.340;2022-07-29T07:28:40;99369.66;;;31.12;49.28
27729;BME280;15126;42.186;24.340;2022-07-29T07:31:07;99378.31;;;31.12;44.07
27729;BME280;15126;42.186;24.340;2022-07-29T07:33:34;99384.09;;;31.12;44.71
27729;BME280;15126;42.186;24.340;2022-07-29T07:36:01;99382.56;;;31.18;46.56
27729;BME280;15126;42.186;24.340;2022-07-29T07:38:29;99390.66;;;31.20;46.20
27729;BME280;15126;42.186;24.340;2022-07-29T07:40:56;99381.25;;;31.27;47.94
27729;BME280;15126;42.186;24.340;2022-07-29T07:43:23;99383.97;;;31.33;46.81
27729;BME280;15126;42.186;24.340;2022-07-29T07:45:50;99378.84;;;31.54;46.78
27729;BME280;15126;42.186;24.340;2022-07-29T07:48:17;99378.28;;;31.55;44.58
27729;BME280;15126;42.186;24.340;2022-07-29T07:50:44;99378.47;;;31.50;46.96
27729;BME280;15126;42.186;24.340;2022-07-29T07:53:11;99381.88;;;31.41;43.55
27729;BME280;15126;42.186;24.340;2022-07-29T07:55:41;99387.97;;;31.22;43.98
27729;BME280;15126;42.186;24.340;2022-07-29T07:58:08;99364.31;;;31.16;44.00
27729;BME280;15126;42.186;24.340;2022-07-29T08:00:35;99382.97;;;31.22;48.14
27729;BME280;15126;42.186;24.340;2022-07-29T08:03:03;99381.44;;;31.29;45.70
27729;BME280;15126;42.186;24.340;2022-07-29T08:05:30;99379.16;;;31.28;47.61
27729;BME280;15126;42.186;24.340;2022-07-29T08:07:57;99375.66;;;31.21;44.22
27729;BME280;15126;42.186;24.340;2022-07-29T08:10:24;99372.84;;;31.44;45.16
27729;BME280;15126;42.186;24.340;2022-07-29T08:13:10;99377.31;;;31.60;42.87
27729;BME280;15126;42.186;24.340;2022-07-29T08:15:39;99373.09;;;31.76;42.63
27729;BME280;15126;42.186;24.340;2022-07-29T08:18:06;99368.66;;;31.83;43.21
27729;BME280;15126;42.186;24.340;2022-07-29T08:20:33;99369.06;;;31.79;42.34
27729;BME280;15126;42.186;24.340;2022-07-29T08:23:01;99347.31;;;31.63;45.43
27729;BME280;15126;42.186;24.340;2022-07-29T08:25:27;99368.88;;;31.85;45.83
27729;BME280;15126;42.186;24.340;2022-07-29T08:27:56;99369.25;;;31.81;41.39
27729;BME280;15126;42.186;24.340;2022-07-29T08:30:24;99367.31;;;31.69;42.61
27729;BME280;15126;42.186;24.340;2022-07-29T08:32:51;99338.66;;;31.63;40.31
27729;BME280;15126;42.186;24.340;2022-07-29T08:35:18;99363.09;;;31.93;41.63
27729;BME280;15126;42.186;24.340;2022-07-29T08:37:45;99360.00;;;31.91;42.67
27729;BME280;15126;42.186;24.340;2022-07-29T08:40:12;99370.41;;;32.09;42.23
27729;BME280;15126;42.186;24.340;2022-07-29T08:42:40;99362.50;;;32.02;42.77
27729;BME280;15126;42.186;24.340;2022-07-29T08:45:08;99356.91;;;32.19;44.43
27729;BME280;15126;42.186;24.340;2022-07-29T08:47:38;99366.16;;;32.10;40.36
27729;BME280;15126;42.186;24.340;2022-07-29T08:50:06;99361.53;;;31.92;42.51
27729;BME280;15126;42.186;24.340;2022-07-29T08:52:36;99355.75;;;31.99;43.81
27729;BME280;15126;42.186;24.340;2022-07-29T08:55:04;99366.94;;;32.03;43.46
27729;BME280;15126;42.186;24.340;2022-07-29T08:57:33;99353.09;;;32.01;40.18
27729;BME280;15126;42.186;24.340;2022-07-29T09:00:00;99355.78;;;32.07;40.02
27729;BME280;15126;42.186;24.340;2022-07-29T09:02:35;99353.47;;;32.05;39.62
27729;BME280;15126;42.186;24.340;2022-07-29T09:05:06;99355.72;;;32.29;41.90
27729;BME280;15126;42.186;24.340;2022-07-29T09:07:33;99339.38;;;32.24;39.43
27729;BME280;15126;42.186;24.340;2022-07-29T09:10:01;99344.53;;;32.41;40.78
27729;BME280;15126;42.186;24.340;2022-07-29T09:12:29;99339.13;;;32.53;38.28
27729;BME280;15126;42.186;24.340;2022-07-29T09:14:56;99340.25;;;32.65;41.94
27729;BME280;15126;42.186;24.340;2022-07-29T09:17:42;99343.53;;;32.69;37.78
27729;BME280;15126;42.186;24.340;2022-07-29T09:20:10;99326.41;;;32.48;38.76
27729;BME280;15126;42.186;24.340;2022-07-29T09:22:37;99329.13;;;32.54;41.89
27729;BME280;15126;42.186;24.340;2022-07-29T09:25:05;99326.75;;;32.67;40.05
27729;BME280;15126;42.186;24.340;2022-07-29T09:27:32;99324.72;;;32.37;34.79
27729;BME280;15126;42.186;24.340;2022-07-29T09:30:00;99329.31;;;32.56;38.69
27729;BME280;15126;42.186;24.340;2022-07-29T09:32:30;99319.41;;;32.74;38.25
27729;BME280;15126;42.186;24.340;2022-07-29T09:35:18;99317.03;;;32.87;38.42
27729;BME280;15126;42.186;24.340;2022-07-29T09:37:46;99313.16;;;32.92;38.59
27729;BME280;15126;42.186;24.340;2022-07-29T09:40:15;99315.50;;;32.86;37.30
27729;BME280;15126;42.186;24.340;2022-07-29T09:42:42;99312.50;;;32.69;37.22
27729;BME280;15126;42.186;24.340;2022-07-29T09:45:10;99321.25;;;32.94;38.64
27729;BME280;15126;42.186;24.340;2022-07-29T09:47:42;99311.22;;;32.95;36.36
27729;BME280;15126;42.186;24.340;2022-07-29T09:50:10;99310.22;;;33.00;35.88
27729;BME280;15126;42.186;24.340;2022-07-29T09:52:46;99308.06;;;33.08;37.42
27729;BME280;15126;42.186;24.340;2022-07-29T09:55:13;99298.88;;;33.27;38.44
27729;BME280;15126;42.186;24.340;2022-07-29T09:57:40;99304.44;;;33.32;37.71
27729;BME280;15126;42.186;24.340;2022-07-29T10:00:08;99300.59;;;33.30;37.10
27729;BME280;15126;42.186;24.340;2022-07-29T10:02:37;99304.66;;;33.27;34.10
27729;BME280;15126;42.186;24.340;2022-07-29T10:05:15;99300.97;;;33.34;34.35
27729;BME280;15126;42.186;24.340;2022-07-29T10:07:46;99295.66;;;33.23;35.42
27729;BME280;15126;42.186;24.340;2022-07-29T10:10:19;99289.53;;;33.11;38.14
27729;BME280;15126;42.186;24.340;2022-07-29T10:12:53;99302.41;;;32.85;33.28
27729;BME280;15126;42.186;24.340;2022-07-29T10:15:22;99298.16;;;32.86;35.83
27729;BME280;15126;42.186;24.340;2022-07-29T10:17:50;99287.28;;;33.02;34.52
27729;BME280;15126;42.186;24.340;2022-07-29T10:20:17;99281.41;;;33.17;33.67
27729;BME280;15126;42.186;24.340;2022-07-29T10:22:45;99287.03;;;33.15;32.60
27729;BME280;15126;42.186;24.340;2022-07-29T10:25:14;99282.59;;;33.14;32.74
27729;BME280;15126;42.186;24.340;2022-07-29T10:27:41;99277.22;;;33.11;32.18
27729;BME280;15126;42.186;24.340;2022-07-29T10:30:10;99277.13;;;33.26;35.10
27729;BME280;15126;42.186;24.340;2022-07-29T10:33:02;99285.66;;;33.41;32.11
27729;BME280;15126;42.186;24.340;2022-07-29T10:35:56;99275.47;;;33.40;32.86
27729;BME280;15126;42.186;24.340;2022-07-29T10:38:41;99263.59;;;33.53;30.14
27729;BME280;15126;42.186;24.340;2022-07-29T10:41:21;99262.53;;;33.66;32.98
27729;BME280;15126;42.186;24.340;2022-07-29T10:43:58;99249.69;;;33.76;30.42
27729;BME280;15126;42.186;24.340;2022-07-29T10:46:25;99264.19;;;33.93;32.90
27729;BME280;15126;42.186;24.340;2022-07-29T10:49:07;99241.53;;;33.82;30.24
27729;BME280;15126;42.186;24.340;2022-07-29T10:54:42;99254.47;;;33.98;33.83
27729;BME280;15126;42.186;24.340;2022-07-29T10:57:18;99245.69;;;34.06;31.63
27729;BME280;15126;42.186;24.340;2022-07-29T10:59:46;99242.81;;;34.06;29.02
27729;BME280;15126;42.186;24.340;2022-07-29T11:02:43;99240.13;;;34.08;34.16
27729;BME280;15126;42.186;24.340;2022-07-29T11:05:11;99237.31;;;34.18;29.53
27729;BME280;15126;42.186;24.340;2022-07-29T11:07:40;99229.22;;;34.16;30.15
27729;BME280;15126;42.186;24.340;2022-07-29T11:10:24;99224.38;;;34.19;29.32
27729;BME280;15126;42.186;24.340;2022-07-29T11:12:51;99233.53;;;34.25;30.75
27729;BME280;15126;42.186;24.340;2022-07-29T11:15:20;99236.13;;;34.21;29.58
27729;BME280;15126;42.186;24.340;2022-07-29T11:18:07;99225.41;;;34.14;29.77
27729;BME280;15126;42.186;24.340;2022-07-29T11:20:36;99201.28;;;34.11;31.45
27729;BME280;15126;42.186;24.340;2022-07-29T11:23:22;99213.34;;;34.34;32.37
27729;BME280;15126;42.186;24.340;2022-07-29T11:26:22;99209.94;;;34.28;29.28
27729;BME280;15126;42.186;24.340;2022-07-29T11:28:54;99212.84;;;34.28;28.35
27729;BME280;15126;42.186;24.340;2022-07-29T11:31:36;99200.16;;;34.24;29.16
27729;BME280;15126;42.186;24.340;2022-07-29T11:34:17;99198.13;;;34.17;28.92
27729;BME280;15126;42.186;24.340;2022-07-29T11:37:20;99201.59;;;33.98;28.23
27729;BME280;15126;42.186;24.340;2022-07-29T11:40:09;99201.88;;;34.09;28.97
27729;BME280;15126;42.186;24.340;2022-07-29T11:42:41;99197.94;;;34.15;29.94
27729;BME280;15126;42.186;24.340;2022-07-29T11:45:09;99195.06;;;34.15;28.58
27729;BME280;15126;42.186;24.340;2022-07-29T11:47:39;99190.53;;;34.21;30.04
27729;BME280;15126;42.186;24.340;2022-07-29T11:50:08;99186.72;;;34.19;29.26
27729;BME280;15126;42.186;24.340;2022-07-29T11:52:37;99182.69;;;34.31;30.80
27729;BME280;15126;42.186;24.340;2022-07-29T11:55:11;99180.88;;;34.36;28.00
27729;BME280;15126;42.186;24.340;2022-07-29T11:57:45;99182.97;;;34.52;29.20
27729;BME280;15126;42.186;24.340;2022-07-29T12:00:21;99162.19;;;34.46;26.76
27729;BME280;15126;42.186;24.340;2022-07-29T12:02:48;99170.09;;;34.63;26.96
27729;BME280;15126;42.186;24.340;2022-07-29T12:05:16;99163.81;;;34.57;26.72
27729;BME280;15126;42.186;24.340;2022-07-29T12:07:43;99159.19;;;34.54;26.63
27729;BME280;15126;42.186;24.340;2022-07-29T12:10:12;99161.59;;;34.48;27.55
27729;BME280;15126;42.186;24.340;2022-07-29T12:12:39;99167.53;;;34.67;26.16
27729;BME280;15126;42.186;24.340;2022-07-29T12:15:13;99178.19;;;34.64;27.45
27729;BME280;15126;42.186;24.340;2022-07-29T12:17:41;99161.59;;;34.75;26.52
27729;BME280;15126;42.186;24.340;2022-07-29T12:20:08;99159.19;;;34.81;28.54
27729;BME280;15126;42.186;24.340;2022-07-29T12:22:37;99162.81;;;34.72;27.85
27729;BME280;15126;42.186;24.340;2022-07-29T12:25:07;99159.97;;;34.81;27.60
27729;BME280;15126;42.186;24.340;2022-07-29T12:27:36;99146.53;;;34.76;25.71
27729;BME280;15126;42.186;24.340;2022-07-29T12:30:06;99155.22;;;34.76;27.67
27729;BME280;15126;42.186;24.340;2022-07-29T12:32:34;99145.78;;;34.85;29.10
27729;BME280;15126;42.186;24.340;2022-07-29T12:35:05;99144.56;;;34.79;27.26
27729;BME280;15126;42.186;24.340;2022-07-29T12:37:33;99145.75;;;34.76;26.90
27729;BME280;15126;42.186;24.340;2022-07-29T12:40:02;99142.66;;;34.74;24.91
27729;BME280;15126;42.186;24.340;2022-07-29T12:42:29;99135.28;;;34.90;27.02
27729;BME280;15126;42.186;24.340;2022-07-29T12:44:58;99130.72;;;34.96;26.24
27729;BME280;15126;42.186;24.340;2022-07-29T12:47:25;99141.53;;;34.96;26.93
27729;BME280;15126;42.186;24.340;2022-07-29T12:50:08;99136.66;;;34.89;26.19
27729;BME280;15126;42.186;24.340;2022-07-29T12:52:35;99124.44;;;34.90;24.79
27729;BME280;15126;42.186;24.340;2022-07-29T12:55:03;99125.81;;;34.89;25.37
27729;BME280;15126;42.186;24.340;2022-07-29T12:57:31;99115.09;;;34.82;25.06
27729;BME280;15126;42.186;24.340;2022-07-29T13:00:04;99126.69;;;34.82;25.36
27729;BME280;15126;42.186;24.340;2022-07-29T13:02:33;99102.50;;;34.60;25.84
27729;BME280;15126;42.186;24.340;2022-07-29T13:05:01;99112.38;;;34.84;25.77